Time;durP1;ratioP1;P1;durP2;ratioP2;P2;SDS_P1;SDS_P2;PMS_P1;PMS_P2;Temp;Humidity;BMP_temperature;BMP_pressure;BME280_temperature;BME280_humidity;BME280_pressure;Samples;Min_cycle;Max_cycle;Signal;HPM_P1;HPM_P2
2022/10/10 00:02:27;;;;;;;3.05;2.65;;;18.20;79.80;;;;;;10831888;32;20427;-80
2022/10/10 00:08:29;;;;;;;2.95;2.22;;;18.10;79.90;;;;;;10827786;32;20023;-80
2022/10/10 00:14:31;;;;;;;4.07;2.58;;;18.00;80.00;;;;;;10831332;32;20035;-80
2022/10/10 00:20:33;;;;;;;4.12;2.90;;;18.00;79.90;;;;;;10831214;32;20020;-80
2022/10/10 00:26:35;;;;;;;7.30;3.62;;;17.90;79.90;;;;;;10830785;32;20020;-80
2022/10/10 00:32:37;;;;;;;4.57;3.15;;;17.90;79.90;;;;;;10830765;32;20024;-80
2022/10/10 00:38:39;;;;;;;5.18;2.53;;;18.00;80.10;;;;;;10830612;32;20098;-80
2022/10/10 00:44:43;;;;;;;5.00;3.08;;;18.00;80.10;;;;;;10830539;32;20282;-80
2022/10/10 00:50:51;;;;;;;4.97;2.72;;;18.00;80.30;;;;;;10830419;32;20013;-79
2022/10/10 00:57:03;;;;;;;8.05;3.72;;;17.90;80.40;;;;;;10830091;32;20328;-80
2022/10/10 01:03:05;;;;;;;7.87;3.47;;;17.90;80.30;;;;;;10829806;32;20024;-80
2022/10/10 01:09:07;;;;;;;5.97;2.60;;;17.90;80.30;;;;;;10830066;32;20021;-80
2022/10/10 01:15:31;;;;;;;5.50;3.08;;;17.90;80.20;;;;;;10829947;33;20367;-79
2022/10/10 01:21:54;;;;;;;3.85;2.47;;;17.80;80.10;;;;;;10829712;33;20024;-79
2022/10/10 01:28:24;;;;;;;3.55;2.47;;;17.80;80.20;;;;;;10829684;33;20434;-81
2022/10/10 01:34:32;;;;;;;4.47;2.95;;;17.80;80.20;;;;;;10816360;33;20381;-80
2022/10/10 01:40:52;;;;;;;6.68;3.03;;;17.80;80.20;;;;;;10829456;33;20020;-80
2022/10/10 01:46:54;;;;;;;4.40;3.05;;;17.80;80.20;;;;;;10826567;33;20024;-80
2022/10/10 01:53:15;;;;;;;4.45;2.45;;;17.70;80.20;;;;;;10825243;33;20043;-79
2022/10/10 01:59:23;;;;;;;5.00;2.47;;;17.70;80.40;;;;;;10828936;33;20050;-81
2022/10/10 02:05:47;;;;;;;4.55;2.60;;;17.70;80.60;;;;;;10828920;33;20024;-80
2022/10/10 02:11:49;;;;;;;2.97;2.28;;;17.80;80.60;;;;;;10829195;32;20059;-80
2022/10/10 02:17:53;;;;;;;5.35;3.08;;;17.70;80.50;;;;;;10835495;32;20019;-80
2022/10/10 02:24:02;;;;;;;3.33;2.33;;;17.70;80.30;;;;;;10835079;32;20039;-80
2022/10/10 02:30:05;;;;;;;2.92;1.98;;;17.70;80.40;;;;;;10830969;33;20046;-80
2022/10/10 02:36:07;;;;;;;3.35;2.05;;;17.60;80.60;;;;;;10834761;32;20400;-80
2022/10/10 02:42:13;;;;;;;3.90;2.40;;;17.60;80.60;;;;;;10821413;32;20056;-80
2022/10/10 02:48:15;;;;;;;3.53;2.40;;;17.60;80.80;;;;;;10834450;32;20384;-79
2022/10/10 02:54:21;;;;;;;2.45;1.98;;;17.60;80.70;;;;;;10820929;32;20396;-80
2022/10/10 03:00:23;;;;;;;2.45;1.98;;;17.50;80.80;;;;;;10820657;32;20324;-80
2022/10/10 03:06:25;;;;;;;4.55;2.97;;;17.50;80.90;;;;;;10833950;32;20020;-80
2022/10/10 03:12:27;;;;;;;2.35;2.12;;;17.50;81.00;;;;;;10829475;32;20329;-79
2022/10/10 03:18:29;;;;;;;5.30;2.87;;;17.50;80.90;;;;;;10833429;32;20070;-79
2022/10/10 03:24:31;;;;;;;3.22;2.40;;;17.40;80.80;;;;;;10832177;32;20393;-79
2022/10/10 03:30:34;;;;;;;3.80;2.55;;;17.50;80.90;;;;;;10828756;33;20019;-79
2022/10/10 03:36:36;;;;;;;4.45;2.80;;;17.30;80.80;;;;;;10828516;32;20035;-79
2022/10/10 03:42:38;;;;;;;2.75;1.95;;;17.30;80.90;;;;;;10832566;32;20345;-79
2022/10/10 03:48:40;;;;;;;5.32;1.85;;;17.20;81.10;;;;;;10832248;32;20077;-79
2022/10/10 03:54:42;;;;;;;3.85;2.67;;;17.30;81.30;;;;;;10832032;32;20047;-79
2022/10/10 04:00:51;;;;;;;4.18;3.15;;;17.30;81.20;;;;;;10831820;32;20054;-79
2022/10/10 04:07:05;;;;;;;3.70;2.42;;;17.30;81.10;;;;;;10832212;32;20289;-79
2022/10/10 04:13:19;;;;;;;2.47;1.62;;;17.30;81.00;;;;;;10462806;32;12014579;-80
2022/10/10 04:19:22;;;;;;;3.15;2.00;;;17.20;81.10;;;;;;10788795;32;20412;-80
2022/10/10 04:25:54;;;;;;;3.87;2.50;;;17.30;81.10;;;;;;10787253;33;20032;-80
2022/10/10 04:31:56;;;;;;;2.58;2.08;;;17.30;81.00;;;;;;10789977;33;20036;-80
2022/10/10 04:38:23;;;;;;;2.20;1.83;;;17.30;81.00;;;;;;10789262;33;20421;-80
2022/10/10 04:44:25;;;;;;;2.50;2.15;;;17.30;81.00;;;;;;10790535;32;20032;-80
2022/10/10 04:50:29;;;;;;;3.58;2.37;;;17.20;81.10;;;;;;10827994;32;20028;-80
2022/10/10 04:56:31;;;;;;;3.33;2.60;;;17.30;81.20;;;;;;10830247;32;20047;-80
2022/10/10 05:02:36;;;;;;;4.25;2.47;;;17.20;81.10;;;;;;10829970;32;20059;-80
2022/10/10 05:08:38;;;;;;;4.22;2.50;;;17.20;81.10;;;;;;10829892;32;20047;-80
2022/10/10 05:14:41;;;;;;;3.30;2.53;;;17.20;81.10;;;;;;10829759;33;20372;-80
2022/10/10 05:20:46;;;;;;;3.62;2.33;;;17.20;81.20;;;;;;10815781;33;20384;-80
2022/10/10 05:26:48;;;;;;;3.62;2.47;;;17.30;81.20;;;;;;10829606;33;20055;-80
2022/10/10 05:32:50;;;;;;;2.92;2.10;;;17.30;81.20;;;;;;10829410;33;20024;-80
2022/10/10 05:38:55;;;;;;;4.15;2.85;;;17.30;81.30;;;;;;10816901;33;20028;-80
2022/10/10 05:45:05;;;;;;;5.30;2.92;;;17.30;81.20;;;;;;10829396;33;20027;-80
2022/10/10 05:51:07;;;;;;;4.95;2.17;;;17.30;81.30;;;;;;10834677;32;20333;-80
2022/10/10 05:57:10;;;;;;;3.12;2.30;;;17.30;81.10;;;;;;10836290;32;20059;-79
2022/10/10 06:03:15;;;;;;;4.32;2.72;;;17.30;81.20;;;;;;10835993;32;20035;-80
2022/10/10 06:09:17;;;;;;;3.50;2.53;;;17.30;81.50;;;;;;10822179;32;20029;-79
2022/10/10 06:15:19;;;;;;;5.70;2.33;;;17.30;81.50;;;;;;10855759;27;20050;-79
2022/10/10 06:21:22;;;;;;;3.28;2.65;;;17.30;81.40;;;;;;10859752;32;20335;-80
2022/10/10 06:27:24;;;;;;;3.70;2.20;;;17.30;81.40;;;;;;10904971;32;20031;-80
2022/10/10 06:33:26;;;;;;;4.18;2.92;;;17.30;81.30;;;;;;10909277;32;20035;-80
2022/10/10 06:39:28;;;;;;;8.00;2.92;;;17.30;81.30;;;;;;10909076;32;20046;-80
2022/10/10 06:45:45;;;;;;;5.55;3.65;;;17.30;81.50;;;;;;10895563;32;20096;-81
2022/10/10 06:51:47;;;;;;;5.97;3.17;;;17.30;81.90;;;;;;10908841;32;20109;-81
2022/10/10 06:57:49;;;;;;;6.35;4.05;;;17.40;82.20;;;;;;10908659;32;20019;-80
2022/10/10 07:03:51;;;;;;;5.05;3.47;;;17.40;82.20;;;;;;10908351;32;20061;-81
2022/10/10 07:09:53;;;;;;;4.18;2.85;;;17.40;82.40;;;;;;10894796;32;20067;-74
2022/10/10 07:15:56;;;;;;;4.07;2.87;;;17.50;82.30;;;;;;10904015;32;20015;-74
2022/10/10 07:21:58;;;;;;;6.57;3.83;;;17.50;82.00;;;;;;10907543;32;20392;-74
2022/10/10 07:28:21;;;;;;;4.47;2.67;;;17.50;81.80;;;;;;10907079;32;20512;-75
2022/10/10 07:34:23;;;;;;;6.05;3.80;;;17.60;81.70;;;;;;10889587;32;20019;-74
2022/10/10 07:40:25;;;;;;;5.03;3.53;;;17.60;82.00;;;;;;10906676;32;20014;-74
2022/10/10 07:46:30;;;;;;;6.70;4.22;;;17.60;82.10;;;;;;10893352;32;20015;-74
2022/10/10 07:52:35;;;;;;;6.80;3.20;;;17.70;81.90;;;;;;10906481;32;20050;-74
2022/10/10 07:58:37;;;;;;;5.68;3.35;;;17.80;81.80;;;;;;10893092;32;20020;-73
2022/10/10 08:04:39;;;;;;;5.50;3.72;;;17.80;82.10;;;;;;10906135;32;20015;-73
2022/10/10 08:10:43;;;;;;;6.43;3.87;;;17.70;82.10;;;;;;10905456;32;20050;-73
2022/10/10 08:16:45;;;;;;;4.95;3.22;;;17.70;82.30;;;;;;10905621;32;20342;-73
2022/10/10 08:22:47;;;;;;;5.97;3.80;;;17.80;82.30;;;;;;10905444;32;20054;-73
2022/10/10 08:28:49;;;;;;;8.02;3.62;;;17.90;82.30;;;;;;10900989;32;20023;-74
2022/10/10 08:34:51;;;;;;;11.10;4.28;;;18.00;82.20;;;;;;10902598;32;20059;-73
2022/10/10 08:41:41;;;;;;;8.40;3.78;;;18.20;82.10;;;;;;10900863;32;20400;-74
2022/10/10 08:47:48;;;;;;;12.52;5.12;;;18.30;81.60;;;;;;10790028;33;20028;-72
2022/10/10 08:53:54;;;;;;;7.30;4.22;;;18.30;81.40;;;;;;10785778;33;20024;-74
2022/10/10 09:00:01;;;;;;;5.75;4.47;;;18.50;81.10;;;;;;10787685;33;20050;-73
2022/10/10 09:06:22;;;;;;;5.97;4.07;;;18.60;80.90;;;;;;10784722;33;20036;-74
2022/10/10 09:12:32;;;;;;;8.13;4.82;;;18.70;81.00;;;;;;10784742;33;20055;-73
2022/10/10 09:18:59;;;;;;;7.05;4.85;;;18.80;80.90;;;;;;10811174;32;20020;-75
2022/10/10 09:25:15;;;;;;;7.15;3.72;;;19.10;81.00;;;;;;10854921;32;20328;-74
2022/10/10 09:31:21;;;;;;;6.87;4.25;;;19.00;80.00;;;;;;10869825;32;20070;-75
2022/10/10 09:37:36;;;;;;;7.57;4.47;;;19.20;79.50;;;;;;10869737;32;20336;-74
2022/10/10 09:43:39;;;;;;;7.55;4.55;;;19.30;79.20;;;;;;10841140;32;20024;-74
2022/10/10 09:49:54;;;;;;;6.47;4.20;;;19.30;79.30;;;;;;10832764;32;20534;-72
2022/10/10 09:55:59;;;;;;;8.50;4.82;;;19.60;78.60;;;;;;10822999;32;20027;-72
2022/10/10 10:02:03;;;;;;;6.57;4.57;;;19.90;78.10;;;;;;10831823;33;20086;-74
2022/10/10 10:08:16;;;;;;;10.27;5.55;;;20.10;76.70;;;;;;10831642;33;20027;-73
2022/10/10 10:14:36;;;;;;;4.75;3.25;;;20.20;76.20;;;;;;10833428;32;20023;-74
2022/10/10 10:20:44;;;;;;;4.97;3.35;;;20.30;75.80;;;;;;10832878;32;20020;-74
2022/10/10 10:26:56;;;;;;;7.10;2.87;;;20.50;75.20;;;;;;10831171;32;20028;-73
2022/10/10 10:33:05;;;;;;;6.55;4.20;;;20.80;74.00;;;;;;10830544;32;20341;-73
2022/10/10 10:39:12;;;;;;;11.45;4.15;;;20.70;73.10;;;;;;10831965;32;20047;-73
2022/10/10 10:45:21;;;;;;;6.50;4.10;;;20.70;73.10;;;;;;10830871;32;20023;-72
2022/10/10 10:51:52;;;;;;;4.30;3.17;;;21.00;72.50;;;;;;10830043;33;20046;-73
2022/10/10 10:58:42;;;;;;;6.40;4.22;;;21.30;71.70;;;;;;10829622;33;20120;-72
2022/10/10 11:05:00;;;;;;;8.05;2.83;;;21.70;71.00;;;;;;10684569;33;20024;-73
2022/10/10 11:11:25;;;;;;;5.00;3.30;;;21.80;69.70;;;;;;10683474;33;20030;-73
2022/10/10 11:24:08;;;;;;;4.45;3.03;;;22.20;68.10;;;;;;10715916;33;20040;-73
2022/10/10 11:30:20;;;;;;;4.85;2.70;;;22.40;67.60;;;;;;10715028;33;20424;-72
2022/10/10 11:36:27;;;;;;;5.30;3.25;;;22.60;66.70;;;;;;10723753;33;20044;-72
2022/10/10 11:42:35;;;;;;;8.65;4.07;;;22.50;65.80;;;;;;10827087;32;20079;-73
2022/10/10 11:49:14;;;;;;;6.87;4.87;;;22.60;65.50;;;;;;10823427;32;20107;-73
2022/10/10 11:55:21;;;;;;;6.57;4.13;;;22.60;64.50;;;;;;10719499;33;20045;-73
2022/10/10 12:01:35;;;;;;;4.93;3.00;;;22.60;64.30;;;;;;10732074;33;20402;-73
2022/10/10 12:08:04;;;;;;;5.07;3.22;;;22.60;64.80;;;;;;10735157;33;20152;-73
2022/10/10 12:14:09;;;;;;;5.43;3.43;;;22.50;64.60;;;;;;10718910;33;20077;-72
2022/10/10 12:20:13;;;;;;;7.47;3.83;;;22.50;64.40;;;;;;10763110;33;20076;-73
2022/10/10 12:26:19;;;;;;;6.25;2.87;;;22.50;66.60;;;;;;10750725;32;20055;-73
2022/10/10 12:32:40;;;;;;;10.60;5.43;;;22.30;66.40;;;;;;10862521;32;20082;-73
2022/10/10 12:39:23;;;;;;;4.35;3.20;;;22.30;65.90;;;;;;10857734;32;20443;-73
2022/10/10 12:45:32;;;;;;;6.97;4.03;;;22.30;65.50;;;;;;10739170;33;20036;-73
2022/10/10 12:52:18;;;;;;;8.98;3.53;;;22.30;65.40;;;;;;10789790;33;20020;-73
2022/10/10 12:58:39;;;;;;;5.70;3.40;;;22.20;65.30;;;;;;10789815;33;20126;-72
2022/10/10 13:04:43;;;;;;;8.75;4.05;;;22.00;65.00;;;;;;10785803;33;20060;-72
2022/10/10 13:11:31;;;;;;;6.85;2.92;;;21.90;64.80;;;;;;10785848;33;20226;-72
2022/10/10 13:17:40;;;;;;;4.15;3.05;;;21.80;65.10;;;;;;10847803;32;20050;-72
2022/10/10 13:23:45;;;;;;;6.78;2.97;;;21.90;65.10;;;;;;10862745;32;20031;-72
2022/10/10 13:29:48;;;;;;;6.50;3.17;;;22.00;65.00;;;;;;10864719;32;20069;-72
2022/10/10 13:35:50;;;;;;;4.22;3.03;;;22.20;64.60;;;;;;10863726;32;20024;-72
2022/10/10 13:41:54;;;;;;;6.53;4.07;;;22.20;64.30;;;;;;10864256;32;20015;-72
2022/10/10 13:47:59;;;;;;;5.55;3.28;;;22.10;64.30;;;;;;10866281;32;20027;-72
2022/10/10 13:54:45;;;;;;;4.50;2.87;;;22.00;64.40;;;;;;10865379;32;20008;-72
2022/10/10 14:01:19;;;;;;;4.95;2.92;;;22.00;64.50;;;;;;10866045;32;20050;-72
2022/10/10 14:07:36;;;;;;;5.40;3.42;;;22.20;63.70;;;;;;10866098;32;20042;-72
2022/10/10 14:13:38;;;;;;;6.68;3.42;;;22.30;63.10;;;;;;10874033;27;20347;-72
2022/10/10 14:19:42;;;;;;;7.40;3.80;;;22.30;62.60;;;;;;10871948;32;20054;-72
2022/10/10 14:25:47;;;;;;;5.03;3.00;;;22.30;62.70;;;;;;10871448;32;20032;-72
2022/10/10 14:31:49;;;;;;;6.90;3.00;;;22.40;62.50;;;;;;10872297;32;20061;-72
2022/10/10 14:37:53;;;;;;;5.57;3.05;;;22.30;62.60;;;;;;10850791;32;20460;-72
2022/10/10 14:43:55;;;;;;;5.47;2.75;;;22.30;63.00;;;;;;10832224;32;20062;-72
2022/10/10 14:49:58;;;;;;;7.35;3.10;;;22.30;63.00;;;;;;10830375;32;20020;-72
2022/10/10 14:56:00;;;;;;;8.90;2.67;;;22.30;62.90;;;;;;10830224;32;20404;-72
2022/10/10 15:02:02;;;;;;;7.32;3.65;;;22.30;62.80;;;;;;10816692;33;20063;-72
2022/10/10 15:08:04;;;;;;;5.00;2.97;;;22.20;63.10;;;;;;10874361;32;20031;-72
2022/10/10 15:14:07;;;;;;;5.90;3.30;;;22.20;63.30;;;;;;10903950;32;20050;-72
2022/10/10 15:20:11;;;;;;;7.65;4.00;;;22.20;63.40;;;;;;10903062;32;20053;-72
2022/10/10 15:26:42;;;;;;;6.70;3.50;;;22.20;63.50;;;;;;10907398;32;20078;-72
2022/10/10 15:32:45;;;;;;;5.87;2.90;;;22.10;63.40;;;;;;10907312;32;20024;-72
2022/10/10 15:38:47;;;;;;;7.97;3.45;;;22.00;63.50;;;;;;10862721;32;20050;-72
2022/10/10 15:44:52;;;;;;;8.23;3.10;;;22.00;63.60;;;;;;10868302;32;20410;-72
2022/10/10 15:50:54;;;;;;;7.70;3.37;;;22.30;63.40;;;;;;10856103;32;20016;-72
2022/10/10 15:56:56;;;;;;;5.53;3.10;;;22.30;63.60;;;;;;10864674;32;20036;-72
2022/10/10 16:02:58;;;;;;;5.40;3.72;;;22.20;64.00;;;;;;10868770;32;20426;-72
2022/10/10 16:09:33;;;;;;;5.60;3.12;;;22.00;64.40;;;;;;10864231;32;20359;-72
2022/10/10 16:15:54;;;;;;;10.10;3.65;;;21.80;64.70;;;;;;10715230;33;20021;-72
2022/10/10 16:21:58;;;;;;;6.22;3.67;;;21.70;65.20;;;;;;10705110;33;20029;-72
2022/10/10 16:28:02;;;;;;;5.62;3.62;;;21.40;65.60;;;;;;10717045;33;20033;-73
2022/10/10 16:34:06;;;;;;;10.07;3.83;;;21.30;66.00;;;;;;10713694;33;20105;-72
2022/10/10 16:40:08;;;;;;;5.47;3.17;;;21.10;66.30;;;;;;10712629;33;20044;-72
2022/10/10 16:46:14;;;;;;;4.43;3.10;;;21.00;66.60;;;;;;10713141;33;20422;-72
2022/10/10 16:52:16;;;;;;;9.20;4.37;;;20.90;66.80;;;;;;10828212;32;20023;-72
2022/10/10 16:58:18;;;;;;;4.20;3.15;;;20.80;67.00;;;;;;10863842;32;20050;-72
2022/10/10 17:04:21;;;;;;;10.07;5.43;;;20.70;67.20;;;;;;10866237;32;20046;-72
2022/10/10 17:10:23;;;;;;;13.05;6.82;;;20.60;67.40;;;;;;10861351;32;20400;-72
2022/10/10 17:16:34;;;;;;;7.53;4.57;;;20.50;67.60;;;;;;10860320;32;20035;-71
2022/10/10 17:22:37;;;;;;;11.82;4.65;;;20.50;67.90;;;;;;10853053;32;20336;-72
2022/10/10 17:28:40;;;;;;;8.10;3.65;;;20.30;68.10;;;;;;10865504;32;20048;-72
2022/10/10 17:34:42;;;;;;;5.50;3.65;;;20.30;68.30;;;;;;10862261;32;20035;-72
2022/10/10 17:40:57;;;;;;;8.90;4.32;;;20.20;68.70;;;;;;10840648;32;20032;-72
2022/10/10 17:46:58;;;;;;;12.30;5.20;;;20.20;69.00;;;;;;10842159;32;20054;-72
2022/10/10 17:53:01;;;;;;;8.27;4.32;;;20.20;69.10;;;;;;10848936;32;20337;-71
2022/10/10 17:59:29;;;;;;;9.43;5.57;;;20.10;69.30;;;;;;10859473;32;20054;-72
2022/10/10 18:05:31;;;;;;;13.35;6.85;;;20.00;69.50;;;;;;10830497;33;20031;-72
2022/10/10 18:11:33;;;;;;;9.13;6.10;;;20.00;69.80;;;;;;10835085;32;20116;-72
2022/10/10 18:17:35;;;;;;;6.05;4.60;;;19.90;70.10;;;;;;10832176;32;20058;-72
2022/10/10 18:23:37;;;;;;;16.50;6.65;;;19.90;70.40;;;;;;10845754;32;20318;-72
2022/10/10 18:29:41;;;;;;;7.75;5.07;;;19.80;70.70;;;;;;10850331;32;20027;-72
2022/10/10 18:35:44;;;;;;;8.95;4.97;;;19.80;71.00;;;;;;10835832;32;20348;-72
2022/10/10 18:41:46;;;;;;;9.13;5.37;;;19.80;71.40;;;;;;10847776;32;20036;-72
2022/10/10 18:47:48;;;;;;;6.20;4.82;;;19.70;71.60;;;;;;10821983;32;20309;-72
2022/10/10 18:53:53;;;;;;;6.15;3.72;;;19.70;71.80;;;;;;10870958;32;20024;-72
2022/10/10 18:59:55;;;;;;;7.40;5.10;;;19.60;72.10;;;;;;10845927;32;20415;-72
2022/10/10 19:05:59;;;;;;;9.07;6.15;;;19.50;72.40;;;;;;10842519;32;20066;-72
2022/10/10 19:12:01;;;;;;;9.68;6.35;;;19.50;72.60;;;;;;10849887;32;20032;-79
2022/10/10 19:18:03;;;;;;;8.68;5.30;;;19.40;73.30;;;;;;10844374;32;20340;-78
2022/10/10 19:24:09;;;;;;;12.13;8.38;;;19.30;74.10;;;;;;10870468;32;20058;-79
2022/10/10 19:30:12;;;;;;;11.48;6.55;;;19.30;74.30;;;;;;10869749;32;20032;-79
2022/10/10 19:36:15;;;;;;;15.10;7.68;;;19.20;74.30;;;;;;10870038;32;20027;-79
2022/10/10 19:42:17;;;;;;;13.50;7.15;;;19.10;74.40;;;;;;10869728;32;20054;-79
2022/10/10 19:48:21;;;;;;;11.90;6.93;;;19.10;74.40;;;;;;10869600;32;20023;-79
2022/10/10 19:54:23;;;;;;;8.50;6.10;;;19.10;74.60;;;;;;10869434;32;20020;-72
2022/10/10 20:00:25;;;;;;;12.40;7.62;;;19.00;74.70;;;;;;10869238;32;20036;-72
2022/10/10 20:06:27;;;;;;;9.13;6.68;;;18.90;74.90;;;;;;10868260;32;20036;-72
2022/10/10 20:12:30;;;;;;;10.98;6.65;;;19.00;75.20;;;;;;10855573;32;20042;-72
2022/10/10 20:18:34;;;;;;;8.90;6.30;;;18.90;75.30;;;;;;10851092;32;20059;-72
2022/10/10 20:24:37;;;;;;;10.77;7.37;;;18.90;75.30;;;;;;10868190;32;20356;-72
2022/10/10 20:30:47;;;;;;;8.45;6.28;;;18.80;75.40;;;;;;10867949;32;20054;-72
2022/10/10 20:36:49;;;;;;;9.80;6.90;;;18.70;75.60;;;;;;10867991;32;20058;-72
2022/10/10 20:42:52;;;;;;;8.90;6.32;;;18.70;75.70;;;;;;10863546;32;20416;-72
2022/10/10 20:48:58;;;;;;;11.82;7.35;;;18.50;75.80;;;;;;10863639;32;20058;-72
2022/10/10 20:55:00;;;;;;;12.40;7.65;;;18.60;76.10;;;;;;10867329;32;20024;-72
2022/10/10 21:01:14;;;;;;;15.15;7.15;;;18.60;76.10;;;;;;10854082;32;20371;-72
2022/10/10 21:07:16;;;;;;;11.07;7.78;;;18.50;76.20;;;;;;10862947;32;20020;-79
2022/10/10 21:13:18;;;;;;;10.38;7.75;;;18.50;76.20;;;;;;10863068;32;20031;-79
2022/10/10 21:19:20;;;;;;;22.08;8.75;;;18.50;76.30;;;;;;10866858;32;20336;-79
2022/10/10 21:32:35;;;;;;;28.48;8.38;;;18.50;76.60;;;;;;10866499;32;20024;-79
2022/10/10 21:38:37;;;;;;;16.05;8.23;;;18.40;76.80;;;;;;10866755;32;20361;-79
2022/10/10 21:44:40;;;;;;;11.43;8.27;;;18.40;77.10;;;;;;10853446;32;20027;-79
2022/10/10 21:50:42;;;;;;;10.48;7.87;;;18.40;76.90;;;;;;10866451;32;20335;-79
2022/10/10 21:56:45;;;;;;;10.43;7.60;;;18.30;76.90;;;;;;10866427;32;20024;-79
2022/10/10 22:02:47;;;;;;;12.35;7.72;;;18.20;77.10;;;;;;10866103;32;20024;-79
2022/10/10 22:08:51;;;;;;;12.77;8.13;;;18.10;77.40;;;;;;10852866;32;20020;-79
2022/10/10 22:14:54;;;;;;;13.20;9.65;;;18.10;77.50;;;;;;10869286;27;20035;-79
2022/10/10 22:20:56;;;;;;;15.05;8.85;;;18.00;77.40;;;;;;10852629;32;20019;-79
2022/10/10 22:26:58;;;;;;;17.48;8.90;;;17.90;77.60;;;;;;10865612;32;20024;-79
2022/10/10 22:33:00;;;;;;;15.75;8.10;;;17.90;77.70;;;;;;10870669;32;20081;-79
2022/10/10 22:39:03;;;;;;;10.57;8.23;;;17.80;77.70;;;;;;10872353;32;20020;-79
2022/10/10 22:45:05;;;;;;;13.93;9.65;;;17.80;77.70;;;;;;10871926;32;20028;-79
2022/10/10 22:51:13;;;;;;;10.38;7.40;;;17.70;77.80;;;;;;10871489;32;20036;-79
2022/10/10 22:57:15;;;;;;;11.70;8.83;;;17.70;78.00;;;;;;10867433;32;20027;-79
2022/10/10 23:03:19;;;;;;;9.13;6.93;;;17.60;78.00;;;;;;10871338;32;20127;-78
2022/10/10 23:09:21;;;;;;;9.05;6.90;;;17.60;78.10;;;;;;10867057;32;20315;-78
2022/10/10 23:15:23;;;;;;;11.38;6.55;;;17.50;78.20;;;;;;10870936;32;20055;-78
2022/10/10 23:21:25;;;;;;;8.40;5.85;;;17.50;78.20;;;;;;10866632;32;20293;-78
2022/10/10 23:27:27;;;;;;;8.27;6.07;;;17.50;78.20;;;;;;10870542;32;20050;-78
2022/10/10 23:33:30;;;;;;;9.65;7.20;;;17.40;78.30;;;;;;10869970;32;20054;-78
2022/10/10 23:39:32;;;;;;;9.85;7.85;;;17.30;78.50;;;;;;10870173;32;20024;-79
2022/10/10 23:45:34;;;;;;;8.82;5.90;;;17.30;78.60;;;;;;10869099;32;20436;-79
2022/10/10 23:51:36;;;;;;;8.15;7.00;;;17.20;78.80;;;;;;10869769;32;20394;-79
2022/10/10 23:57:38;;;;;;;14.52;8.13;;;17.30;78.70;;;;;;10869447;32;20042;-79
